sensor_id;sensor_type;location;lat;lon;timestamp;temperature;humidity
12971;DHT22;6550;48.650;8.774;2022-12-05T00:03:46;5.20;99.90
12971;DHT22;6550;48.650;8.774;2022-12-05T00:06:16;5.20;99.90
12971;DHT22;6550;48.650;8.774;2022-12-05T00:08:46;5.20;99.90
12971;DHT22;6550;48.650;8.774;2022-12-05T00:11:15;5.20;99.90
12971;DHT22;6550;48.650;8.774;2022-12-05T00:13:43;5.20;99.90
12971;DHT22;6550;48.650;8.774;2022-12-05T00:16:12;5.30;99.90
12971;DHT22;6550;48.650;8.774;2022-12-05T00:18:42;5.30;99.90
12971;DHT22;6550;48.650;8.774;2022-12-05T00:21:14;5.30;99.90
12971;DHT22;6550;48.650;8.774;2022-12-05T00:23:41;5.30;99.90
12971;DHT22;6550;48.650;8.774;2022-12-05T00:26:08;5.30;99.90
12971;DHT22;6550;48.650;8.774;2022-12-05T00:28:40;5.40;99.90
12971;DHT22;6550;48.650;8.774;2022-12-05T00:31:13;5.40;99.90
12971;DHT22;6550;48.650;8.774;2022-12-05T00:33:42;5.30;99.90
12971;DHT22;6550;48.650;8.774;2022-12-05T00:36:14;5.30;99.90
12971;DHT22;6550;48.650;8.774;2022-12-05T00:38:41;5.30;99.90
12971;DHT22;6550;48.650;8.774;2022-12-05T00:41:11;5.20;99.90
12971;DHT22;6550;48.650;8.774;2022-12-05T00:43:38;5.30;99.90
12971;DHT22;6550;48.650;8.774;2022-12-05T00:46:11;5.30;99.90
12971;DHT22;6550;48.650;8.774;2022-12-05T00:48:39;5.20;99.90
12971;DHT22;6550;48.650;8.774;2022-12-05T00:51:10;5.30;99.90
12971;DHT22;6550;48.650;8.774;2022-12-05T00:53:37;5.20;99.90
12971;DHT22;6550;48.650;8.774;2022-12-05T00:56:07;5.20;99.90
12971;DHT22;6550;48.650;8.774;2022-12-05T00:58:34;5.30;99.90
12971;DHT22;6550;48.650;8.774;2022-12-05T01:01:14;5.30;99.90
12971;DHT22;6550;48.650;8.774;2022-12-05T01:03:44;5.30;99.90
12971;DHT22;6550;48.650;8.774;2022-12-05T01:06:14;5.30;99.90
12971;DHT22;6550;48.650;8.774;2022-12-05T01:08:42;5.40;99.90
12971;DHT22;6550;48.650;8.774;2022-12-05T01:11:11;5.40;99.90
12971;DHT22;6550;48.650;8.774;2022-12-05T01:13:42;5.30;99.90
12971;DHT22;6550;48.650;8.774;2022-12-05T01:16:36;5.30;99.90
12971;DHT22;6550;48.650;8.774;2022-12-05T01:19:13;5.30;99.90
12971;DHT22;6550;48.650;8.774;2022-12-05T01:21:43;5.30;99.90
12971;DHT22;6550;48.650;8.774;2022-12-05T01:24:10;5.30;99.90
12971;DHT22;6550;48.650;8.774;2022-12-05T01:26:39;5.30;99.90
12971;DHT22;6550;48.650;8.774;2022-12-05T01:29:06;5.30;99.90
12971;DHT22;6550;48.650;8.774;2022-12-05T01:31:35;5.20;99.90
12971;DHT22;6550;48.650;8.774;2022-12-05T01:34:04;5.20;99.90
12971;DHT22;6550;48.650;8.774;2022-12-05T01:36:33;5.30;99.90
12971;DHT22;6550;48.650;8.774;2022-12-05T01:39:00;5.30;99.90
12971;DHT22;6550;48.650;8.774;2022-12-05T01:41:32;5.30;99.90
12971;DHT22;6550;48.650;8.774;2022-12-05T01:44:05;5.30;99.90
12971;DHT22;6550;48.650;8.774;2022-12-05T01:46:39;5.30;99.90
12971;DHT22;6550;48.650;8.774;2022-12-05T01:49:13;5.30;99.90
12971;DHT22;6550;48.650;8.774;2022-12-05T01:51:44;5.30;99.90
12971;DHT22;6550;48.650;8.774;2022-12-05T01:54:15;5.30;99.90
12971;DHT22;6550;48.650;8.774;2022-12-05T01:56:47;5.20;99.90
12971;DHT22;6550;48.650;8.774;2022-12-05T01:59:16;5.30;99.90
12971;DHT22;6550;48.650;8.774;2022-12-05T02:01:44;5.30;99.90
12971;DHT22;6550;48.650;8.774;2022-12-05T02:04:11;5.20;99.90
12971;DHT22;6550;48.650;8.774;2022-12-05T02:06:37;5.30;99.90
12971;DHT22;6550;48.650;8.774;2022-12-05T02:09:06;5.20;99.90
12971;DHT22;6550;48.650;8.774;2022-12-05T02:11:33;5.20;99.90
12971;DHT22;6550;48.650;8.774;2022-12-05T02:14:23;5.30;99.90
12971;DHT22;6550;48.650;8.774;2022-12-05T02:17:21;5.30;99.90
12971;DHT22;6550;48.650;8.774;2022-12-05T02:20:02;5.30;99.90
12971;DHT22;6550;48.650;8.774;2022-12-05T02:30:58;5.30;99.90
12971;DHT22;6550;48.650;8.774;2022-12-05T02:33:39;5.30;99.90
12971;DHT22;6550;48.650;8.774;2022-12-05T02:36:17;5.30;99.90
12971;DHT22;6550;48.650;8.774;2022-12-05T02:38:52;5.30;99.90
12971;DHT22;6550;48.650;8.774;2022-12-05T02:44:02;5.30;99.90
12971;DHT22;6550;48.650;8.774;2022-12-05T02:46:32;5.30;99.90
12971;DHT22;6550;48.650;8.774;2022-12-05T02:49:06;5.30;99.90
12971;DHT22;6550;48.650;8.774;2022-12-05T02:51:45;5.30;99.90
12971;DHT22;6550;48.650;8.774;2022-12-05T02:54:22;5.30;99.90
12971;DHT22;6550;48.650;8.774;2022-12-05T02:56:51;5.30;99.90
12971;DHT22;6550;48.650;8.774;2022-12-05T02:59:18;5.30;99.90
12971;DHT22;6550;48.650;8.774;2022-12-05T03:01:49;5.40;99.90
12971;DHT22;6550;48.650;8.774;2022-12-05T03:04:18;5.40;99.90
12971;DHT22;6550;48.650;8.774;2022-12-05T03:06:59;5.40;99.90
12971;DHT22;6550;48.650;8.774;2022-12-05T03:09:29;5.40;99.90
12971;DHT22;6550;48.650;8.774;2022-12-05T03:12:19;5.30;99.90
12971;DHT22;6550;48.650;8.774;2022-12-05T03:15:14;5.30;99.90
12971;DHT22;6550;48.650;8.774;2022-12-05T03:17:58;5.30;99.90
12971;DHT22;6550;48.650;8.774;2022-12-05T03:20:51;5.30;99.90
12971;DHT22;6550;48.650;8.774;2022-12-05T03:23:28;5.30;99.90
12971;DHT22;6550;48.650;8.774;2022-12-05T03:26:09;5.30;99.90
12971;DHT22;6550;48.650;8.774;2022-12-05T03:31:44;5.30;99.90
12971;DHT22;6550;48.650;8.774;2022-12-05T03:34:23;5.30;99.90
12971;DHT22;6550;48.650;8.774;2022-12-05T03:36:55;5.30;99.90
12971;DHT22;6550;48.650;8.774;2022-12-05T03:39:25;5.30;99.90
12971;DHT22;6550;48.650;8.774;2022-12-05T03:44:30;5.40;99.90
12971;DHT22;6550;48.650;8.774;2022-12-05T03:49:51;5.30;99.90
12971;DHT22;6550;48.650;8.774;2022-12-05T03:52:47;5.30;99.90
12971;DHT22;6550;48.650;8.774;2022-12-05T03:55:42;5.20;99.90
12971;DHT22;6550;48.650;8.774;2022-12-05T03:58:16;5.20;99.90
12971;DHT22;6550;48.650;8.774;2022-12-05T04:00:52;5.20;99.90
12971;DHT22;6550;48.650;8.774;2022-12-05T04:03:23;5.20;99.90
12971;DHT22;6550;48.650;8.774;2022-12-05T04:05:58;5.10;99.90
12971;DHT22;6550;48.650;8.774;2022-12-05T04:11:18;5.10;99.90
12971;DHT22;6550;48.650;8.774;2022-12-05T04:13:51;5.20;99.90
12971;DHT22;6550;48.650;8.774;2022-12-05T04:16:19;5.20;99.90
12971;DHT22;6550;48.650;8.774;2022-12-05T04:19:10;5.20;99.90
12971;DHT22;6550;48.650;8.774;2022-12-05T04:21:42;5.30;99.90
12971;DHT22;6550;48.650;8.774;2022-12-05T04:24:26;5.30;99.90
12971;DHT22;6550;48.650;8.774;2022-12-05T04:27:24;5.30;99.90
12971;DHT22;6550;48.650;8.774;2022-12-05T04:32:39;5.20;99.90
12971;DHT22;6550;48.650;8.774;2022-12-05T04:35:14;5.20;99.90
12971;DHT22;6550;48.650;8.774;2022-12-05T04:37:48;5.20;99.90
12971;DHT22;6550;48.650;8.774;2022-12-05T04:40:22;5.10;99.90
12971;DHT22;6550;48.650;8.774;2022-12-05T04:42:54;5.10;99.90
12971;DHT22;6550;48.650;8.774;2022-12-05T04:45:24;5.10;99.90
12971;DHT22;6550;48.650;8.774;2022-12-05T04:47:56;5.10;99.90
12971;DHT22;6550;48.650;8.774;2022-12-05T04:50:30;5.10;99.90
12971;DHT22;6550;48.650;8.774;2022-12-05T04:53:01;5.10;99.90
12971;DHT22;6550;48.650;8.774;2022-12-05T04:55:31;5.20;99.90
12971;DHT22;6550;48.650;8.774;2022-12-05T04:58:14;5.20;99.90
12971;DHT22;6550;48.650;8.774;2022-12-05T05:01:02;5.20;99.90
12971;DHT22;6550;48.650;8.774;2022-12-05T05:06:27;5.20;99.90
12971;DHT22;6550;48.650;8.774;2022-12-05T05:08:57;5.20;99.90
12971;DHT22;6550;48.650;8.774;2022-12-05T05:11:27;5.20;99.90
12971;DHT22;6550;48.650;8.774;2022-12-05T05:13:54;5.20;99.90
12971;DHT22;6550;48.650;8.774;2022-12-05T05:16:27;5.10;99.90
12971;DHT22;6550;48.650;8.774;2022-12-05T05:18:55;5.10;99.90
12971;DHT22;6550;48.650;8.774;2022-12-05T05:21:24;5.10;99.90
12971;DHT22;6550;48.650;8.774;2022-12-05T05:23:54;5.10;99.90
12971;DHT22;6550;48.650;8.774;2022-12-05T05:26:22;5.20;99.90
12971;DHT22;6550;48.650;8.774;2022-12-05T05:28:52;5.20;99.90
12971;DHT22;6550;48.650;8.774;2022-12-05T05:31:21;5.20;99.90
12971;DHT22;6550;48.650;8.774;2022-12-05T05:33:55;5.20;99.90
12971;DHT22;6550;48.650;8.774;2022-12-05T05:36:25;5.20;99.90
12971;DHT22;6550;48.650;8.774;2022-12-05T05:38:55;5.20;99.90
12971;DHT22;6550;48.650;8.774;2022-12-05T05:41:28;5.20;99.90
12971;DHT22;6550;48.650;8.774;2022-12-05T05:43:56;5.20;99.90
12971;DHT22;6550;48.650;8.774;2022-12-05T05:46:25;5.20;99.90
12971;DHT22;6550;48.650;8.774;2022-12-05T05:48:52;5.20;99.90
12971;DHT22;6550;48.650;8.774;2022-12-05T05:51:20;5.20;99.90
12971;DHT22;6550;48.650;8.774;2022-12-05T05:53:47;5.20;99.90
12971;DHT22;6550;48.650;8.774;2022-12-05T05:56:17;5.20;99.90
12971;DHT22;6550;48.650;8.774;2022-12-05T05:58:53;5.10;99.90
12971;DHT22;6550;48.650;8.774;2022-12-05T06:01:23;5.10;99.90
12971;DHT22;6550;48.650;8.774;2022-12-05T06:03:50;5.10;99.90
12971;DHT22;6550;48.650;8.774;2022-12-05T06:06:18;5.10;99.90
12971;DHT22;6550;48.650;8.774;2022-12-05T06:08:45;5.10;99.90
12971;DHT22;6550;48.650;8.774;2022-12-05T06:11:19;5.10;99.90
12971;DHT22;6550;48.650;8.774;2022-12-05T06:13:55;5.20;99.90
12971;DHT22;6550;48.650;8.774;2022-12-05T06:16:23;5.20;99.90
12971;DHT22;6550;48.650;8.774;2022-12-05T06:18:51;5.20;99.90
12971;DHT22;6550;48.650;8.774;2022-12-05T06:21:18;5.20;99.90
12971;DHT22;6550;48.650;8.774;2022-12-05T06:23:45;5.20;99.90
12971;DHT22;6550;48.650;8.774;2022-12-05T06:26:15;5.20;99.90
12971;DHT22;6550;48.650;8.774;2022-12-05T06:28:42;5.10;99.90
12971;DHT22;6550;48.650;8.774;2022-12-05T06:31:21;5.10;99.90
12971;DHT22;6550;48.650;8.774;2022-12-05T06:33:48;5.10;99.90
12971;DHT22;6550;48.650;8.774;2022-12-05T06:36:22;5.10;99.90
12971;DHT22;6550;48.650;8.774;2022-12-05T06:38:49;5.10;99.90
12971;DHT22;6550;48.650;8.774;2022-12-05T06:41:18;5.10;99.90
12971;DHT22;6550;48.650;8.774;2022-12-05T06:43:45;5.10;99.90
12971;DHT22;6550;48.650;8.774;2022-12-05T06:46:17;5.10;99.90
12971;DHT22;6550;48.650;8.774;2022-12-05T06:48:46;5.20;99.90
12971;DHT22;6550;48.650;8.774;2022-12-05T06:51:15;5.10;99.90
12971;DHT22;6550;48.650;8.774;2022-12-05T06:53:45;6.30;99.90
12971;DHT22;6550;48.650;8.774;2022-12-05T06:56:15;5.20;99.90
12971;DHT22;6550;48.650;8.774;2022-12-05T06:58:43;5.20;99.90
12971;DHT22;6550;48.650;8.774;2022-12-05T07:01:14;5.30;99.90
12971;DHT22;6550;48.650;8.774;2022-12-05T07:04:01;5.20;99.90
12971;DHT22;6550;48.650;8.774;2022-12-05T07:06:33;5.20;99.90
12971;DHT22;6550;48.650;8.774;2022-12-05T07:09:03;5.10;99.90
12971;DHT22;6550;48.650;8.774;2022-12-05T07:11:33;5.20;99.90
12971;DHT22;6550;48.650;8.774;2022-12-05T07:14:00;5.10;99.90
12971;DHT22;6550;48.650;8.774;2022-12-05T07:16:40;5.20;99.90
12971;DHT22;6550;48.650;8.774;2022-12-05T07:19:07;5.20;99.90
12971;DHT22;6550;48.650;8.774;2022-12-05T07:21:34;5.20;99.90
12971;DHT22;6550;48.650;8.774;2022-12-05T07:24:01;5.20;99.90
12971;DHT22;6550;48.650;8.774;2022-12-05T07:26:28;5.30;99.90
12971;DHT22;6550;48.650;8.774;2022-12-05T07:28:55;5.30;99.90
12971;DHT22;6550;48.650;8.774;2022-12-05T07:31:23;5.30;99.90
12971;DHT22;6550;48.650;8.774;2022-12-05T07:33:51;5.30;99.90
12971;DHT22;6550;48.650;8.774;2022-12-05T07:36:20;5.30;99.90
12971;DHT22;6550;48.650;8.774;2022-12-05T07:38:52;5.40;99.90
12971;DHT22;6550;48.650;8.774;2022-12-05T07:41:25;5.40;99.90
12971;DHT22;6550;48.650;8.774;2022-12-05T07:43:54;5.40;99.90
12971;DHT22;6550;48.650;8.774;2022-12-05T07:46:24;5.30;99.90
12971;DHT22;6550;48.650;8.774;2022-12-05T07:48:52;5.30;99.90
12971;DHT22;6550;48.650;8.774;2022-12-05T07:51:20;5.30;99.90
12971;DHT22;6550;48.650;8.774;2022-12-05T07:53:47;5.30;99.90
12971;DHT22;6550;48.650;8.774;2022-12-05T07:56:16;5.30;99.90
12971;DHT22;6550;48.650;8.774;2022-12-05T07:58:49;5.30;99.90
12971;DHT22;6550;48.650;8.774;2022-12-05T08:01:18;5.40;99.90
12971;DHT22;6550;48.650;8.774;2022-12-05T08:03:46;5.40;99.90
12971;DHT22;6550;48.650;8.774;2022-12-05T08:06:21;5.50;99.90
12971;DHT22;6550;48.650;8.774;2022-12-05T08:08:53;5.50;99.90
12971;DHT22;6550;48.650;8.774;2022-12-05T08:11:23;5.60;99.90
12971;DHT22;6550;48.650;8.774;2022-12-05T08:13:51;5.70;99.90
12971;DHT22;6550;48.650;8.774;2022-12-05T08:16:21;5.70;99.90
12971;DHT22;6550;48.650;8.774;2022-12-05T08:19:04;5.70;99.90
12971;DHT22;6550;48.650;8.774;2022-12-05T08:21:34;5.70;99.90
12971;DHT22;6550;48.650;8.774;2022-12-05T08:24:05;5.70;99.90
12971;DHT22;6550;48.650;8.774;2022-12-05T08:26:33;5.70;99.90
12971;DHT22;6550;48.650;8.774;2022-12-05T08:29:05;5.70;99.90
12971;DHT22;6550;48.650;8.774;2022-12-05T08:31:33;5.70;99.90
12971;DHT22;6550;48.650;8.774;2022-12-05T08:34:00;5.70;99.90
12971;DHT22;6550;48.650;8.774;2022-12-05T08:36:33;5.70;99.90
12971;DHT22;6550;48.650;8.774;2022-12-05T08:39:04;5.80;99.90
12971;DHT22;6550;48.650;8.774;2022-12-05T08:41:32;5.80;99.90
12971;DHT22;6550;48.650;8.774;2022-12-05T08:44:05;5.80;99.90
12971;DHT22;6550;48.650;8.774;2022-12-05T08:46:33;5.90;99.90
12971;DHT22;6550;48.650;8.774;2022-12-05T08:49:01;6.00;99.90
12971;DHT22;6550;48.650;8.774;2022-12-05T08:51:28;6.00;99.90
12971;DHT22;6550;48.650;8.774;2022-12-05T08:53:57;6.00;99.90
12971;DHT22;6550;48.650;8.774;2022-12-05T08:56:26;6.10;99.90
12971;DHT22;6550;48.650;8.774;2022-12-05T08:58:55;6.10;99.90
12971;DHT22;6550;48.650;8.774;2022-12-05T09:01:34;6.30;99.90
12971;DHT22;6550;48.650;8.774;2022-12-05T09:04:04;6.30;99.90
12971;DHT22;6550;48.650;8.774;2022-12-05T09:06:32;6.40;99.90
12971;DHT22;6550;48.650;8.774;2022-12-05T09:09:04;6.40;99.90
12971;DHT22;6550;48.650;8.774;2022-12-05T09:11:33;6.50;99.90
12971;DHT22;6550;48.650;8.774;2022-12-05T09:14:03;6.50;99.90
12971;DHT22;6550;48.650;8.774;2022-12-05T09:16:33;6.40;99.90
12971;DHT22;6550;48.650;8.774;2022-12-05T09:19:04;6.50;99.90
12971;DHT22;6550;48.650;8.774;2022-12-05T09:21:32;6.50;99.90
12971;DHT22;6550;48.650;8.774;2022-12-05T09:24:01;6.50;99.90
12971;DHT22;6550;48.650;8.774;2022-12-05T09:26:32;6.50;99.90
12971;DHT22;6550;48.650;8.774;2022-12-05T09:29:01;6.50;99.90
12971;DHT22;6550;48.650;8.774;2022-12-05T09:31:28;6.50;99.90
12971;DHT22;6550;48.650;8.774;2022-12-05T09:33:56;6.50;99.90
12971;DHT22;6550;48.650;8.774;2022-12-05T09:36:25;6.50;99.90
12971;DHT22;6550;48.650;8.774;2022-12-05T09:38:53;6.50;99.90
12971;DHT22;6550;48.650;8.774;2022-12-05T09:50:26;6.50;99.90
12971;DHT22;6550;48.650;8.774;2022-12-05T09:55:52;6.50;99.90
12971;DHT22;6550;48.650;8.774;2022-12-05T10:01:07;6.60;99.90
12971;DHT22;6550;48.650;8.774;2022-12-05T10:03:44;6.60;99.90
12971;DHT22;6550;48.650;8.774;2022-12-05T10:06:31;6.70;99.90
12971;DHT22;6550;48.650;8.774;2022-12-05T10:09:35;6.70;99.90
12971;DHT22;6550;48.650;8.774;2022-12-05T10:17:49;6.80;99.90
12971;DHT22;6550;48.650;8.774;2022-12-05T10:20:33;6.80;99.90
12971;DHT22;6550;48.650;8.774;2022-12-05T10:23:11;6.80;99.90
12971;DHT22;6550;48.650;8.774;2022-12-05T10:26:02;6.80;99.90
12971;DHT22;6550;48.650;8.774;2022-12-05T10:31:24;6.90;99.90
12971;DHT22;6550;48.650;8.774;2022-12-05T10:34:02;7.10;99.90
12971;DHT22;6550;48.650;8.774;2022-12-05T10:36:30;7.20;99.90
12971;DHT22;6550;48.650;8.774;2022-12-05T10:38:58;7.30;99.90
12971;DHT22;6550;48.650;8.774;2022-12-05T10:41:24;7.40;99.90
12971;DHT22;6550;48.650;8.774;2022-12-05T10:43:55;7.60;99.90
12971;DHT22;6550;48.650;8.774;2022-12-05T10:46:24;7.60;99.90
12971;DHT22;6550;48.650;8.774;2022-12-05T10:48:51;7.60;99.90
12971;DHT22;6550;48.650;8.774;2022-12-05T10:51:23;7.70;99.90
12971;DHT22;6550;48.650;8.774;2022-12-05T10:53:51;7.60;99.90
12971;DHT22;6550;48.650;8.774;2022-12-05T10:59:06;7.60;99.90
12971;DHT22;6550;48.650;8.774;2022-12-05T11:01:48;7.60;99.90
12971;DHT22;6550;48.650;8.774;2022-12-05T11:04:29;7.60;99.90
12971;DHT22;6550;48.650;8.774;2022-12-05T11:07:03;7.60;99.90
12971;DHT22;6550;48.650;8.774;2022-12-05T11:09:35;7.70;99.90
12971;DHT22;6550;48.650;8.774;2022-12-05T11:12:16;7.70;99.90
12971;DHT22;6550;48.650;8.774;2022-12-05T11:17:45;8.00;99.90
12971;DHT22;6550;48.650;8.774;2022-12-05T11:22:48;8.10;99.90
12971;DHT22;6550;48.650;8.774;2022-12-05T11:28:20;8.30;99.90
12971;DHT22;6550;48.650;8.774;2022-12-05T11:33:34;8.40;99.90
12971;DHT22;6550;48.650;8.774;2022-12-05T11:36:21;8.50;99.90
12971;DHT22;6550;48.650;8.774;2022-12-05T11:38:48;8.60;99.90
12971;DHT22;6550;48.650;8.774;2022-12-05T11:41:54;8.60;99.90
12971;DHT22;6550;48.650;8.774;2022-12-05T11:44:44;8.80;99.90
12971;DHT22;6550;48.650;8.774;2022-12-05T11:53:04;9.10;99.90
12971;DHT22;6550;48.650;8.774;2022-12-05T11:55:57;9.20;99.90
12971;DHT22;6550;48.650;8.774;2022-12-05T11:58:52;9.30;99.90
12971;DHT22;6550;48.650;8.774;2022-12-05T12:07:30;12.40;99.90
12971;DHT22;6550;48.650;8.774;2022-12-05T12:16:07;9.20;99.90
12971;DHT22;6550;48.650;8.774;2022-12-05T12:19:05;9.10;99.90
12971;DHT22;6550;48.650;8.774;2022-12-05T12:28:29;9.00;99.90
12971;DHT22;6550;48.650;8.774;2022-12-05T12:33:51;8.90;99.90
12971;DHT22;6550;48.650;8.774;2022-12-05T12:36:36;8.90;99.90
12971;DHT22;6550;48.650;8.774;2022-12-05T12:42:20;8.90;99.90
12971;DHT22;6550;48.650;8.774;2022-12-05T12:47:56;8.90;99.90
12971;DHT22;6550;48.650;8.774;2022-12-05T12:50:29;8.90;99.90
12971;DHT22;6550;48.650;8.774;2022-12-05T12:53:22;8.80;99.90
12971;DHT22;6550;48.650;8.774;2022-12-05T13:04:06;8.90;99.90
12971;DHT22;6550;48.650;8.774;2022-12-05T13:06:51;9.00;99.90
12971;DHT22;6550;48.650;8.774;2022-12-05T13:09:31;8.90;99.90
12971;DHT22;6550;48.650;8.774;2022-12-05T13:12:12;9.00;99.90
12971;DHT22;6550;48.650;8.774;2022-12-05T13:14:49;8.90;99.90
12971;DHT22;6550;48.650;8.774;2022-12-05T13:17:19;8.90;99.90
12971;DHT22;6550;48.650;8.774;2022-12-05T13:19:49;8.90;99.90
12971;DHT22;6550;48.650;8.774;2022-12-05T13:22:19;8.90;99.90
12971;DHT22;6550;48.650;8.774;2022-12-05T13:24:53;8.90;99.90
12971;DHT22;6550;48.650;8.774;2022-12-05T13:27:23;8.90;99.90
12971;DHT22;6550;48.650;8.774;2022-12-05T13:29:59;8.90;99.90
12971;DHT22;6550;48.650;8.774;2022-12-05T13:32:34;8.90;99.90
12971;DHT22;6550;48.650;8.774;2022-12-05T13:37:33;8.90;99.90
12971;DHT22;6550;48.650;8.774;2022-12-05T13:43:08;8.90;99.90
12971;DHT22;6550;48.650;8.774;2022-12-05T13:45:35;8.80;99.90
12971;DHT22;6550;48.650;8.774;2022-12-05T13:48:13;8.80;99.90
12971;DHT22;6550;48.650;8.774;2022-12-05T13:50:55;8.70;99.90
12971;DHT22;6550;48.650;8.774;2022-12-05T13:53:41;8.70;99.90
12971;DHT22;6550;48.650;8.774;2022-12-05T13:58:46;8.50;99.90
12971;DHT22;6550;48.650;8.774;2022-12-05T14:04:02;8.50;99.90
12971;DHT22;6550;48.650;8.774;2022-12-05T14:17:26;8.40;99.90
12971;DHT22;6550;48.650;8.774;2022-12-05T14:26:13;8.30;99.90
12971;DHT22;6550;48.650;8.774;2022-12-05T14:34:26;8.20;99.90
12971;DHT22;6550;48.650;8.774;2022-12-05T14:39:32;8.10;99.90
12971;DHT22;6550;48.650;8.774;2022-12-05T14:42:06;8.20;99.90
12971;DHT22;6550;48.650;8.774;2022-12-05T14:44:46;8.10;99.90
12971;DHT22;6550;48.650;8.774;2022-12-05T14:47:22;8.10;99.90
12971;DHT22;6550;48.650;8.774;2022-12-05T14:52:28;8.00;99.90
12971;DHT22;6550;48.650;8.774;2022-12-05T14:55:03;8.00;99.90
12971;DHT22;6550;48.650;8.774;2022-12-05T14:57:31;7.90;99.90
12971;DHT22;6550;48.650;8.774;2022-12-05T15:00:04;7.90;99.90
12971;DHT22;6550;48.650;8.774;2022-12-05T15:02:43;7.80;99.90
12971;DHT22;6550;48.650;8.774;2022-12-05T15:05:29;7.80;99.90
12971;DHT22;6550;48.650;8.774;2022-12-05T15:07:58;7.80;99.90
12971;DHT22;6550;48.650;8.774;2022-12-05T15:10:32;8.90;99.90
12971;DHT22;6550;48.650;8.774;2022-12-05T15:18:27;7.70;99.90
12971;DHT22;6550;48.650;8.774;2022-12-05T15:26:31;7.60;99.90
12971;DHT22;6550;48.650;8.774;2022-12-05T15:35:03;7.50;99.90
12971;DHT22;6550;48.650;8.774;2022-12-05T15:37:34;7.50;99.90
12971;DHT22;6550;48.650;8.774;2022-12-05T15:50:32;7.40;99.90
12971;DHT22;6550;48.650;8.774;2022-12-05T15:53:12;7.30;99.90
12971;DHT22;6550;48.650;8.774;2022-12-05T15:58:40;7.20;99.90
12971;DHT22;6550;48.650;8.774;2022-12-05T16:04:01;7.20;99.90
12971;DHT22;6550;48.650;8.774;2022-12-05T16:06:37;7.20;99.90
12971;DHT22;6550;48.650;8.774;2022-12-05T16:09:13;7.20;99.90
12971;DHT22;6550;48.650;8.774;2022-12-05T16:14:21;7.10;99.90
12971;DHT22;6550;48.650;8.774;2022-12-05T16:17:13;7.10;99.90
12971;DHT22;6550;48.650;8.774;2022-12-05T16:19:44;7.20;99.90
12971;DHT22;6550;48.650;8.774;2022-12-05T16:27:34;7.20;99.90
12971;DHT22;6550;48.650;8.774;2022-12-05T16:30:22;7.20;99.90
12971;DHT22;6550;48.650;8.774;2022-12-05T16:33:06;7.20;99.90
12971;DHT22;6550;48.650;8.774;2022-12-05T16:40:50;7.00;99.90
12971;DHT22;6550;48.650;8.774;2022-12-05T16:45:54;7.00;99.90
12971;DHT22;6550;48.650;8.774;2022-12-05T16:48:26;7.00;99.90
12971;DHT22;6550;48.650;8.774;2022-12-05T16:53:45;7.00;99.90
12971;DHT22;6550;48.650;8.774;2022-12-05T16:56:26;7.00;99.90
12971;DHT22;6550;48.650;8.774;2022-12-05T16:58:56;7.00;99.90
12971;DHT22;6550;48.650;8.774;2022-12-05T17:01:25;7.10;99.90
12971;DHT22;6550;48.650;8.774;2022-12-05T17:03:53;7.10;99.90
12971;DHT22;6550;48.650;8.774;2022-12-05T17:06:21;7.00;99.90
12971;DHT22;6550;48.650;8.774;2022-12-05T17:08:54;6.90;99.90
12971;DHT22;6550;48.650;8.774;2022-12-05T17:11:32;7.80;99.90
12971;DHT22;6550;48.650;8.774;2022-12-05T17:14:02;9.40;99.90
12971;DHT22;6550;48.650;8.774;2022-12-05T17:16:29;8.50;99.90
12971;DHT22;6550;48.650;8.774;2022-12-05T17:18:58;8.00;99.90
12971;DHT22;6550;48.650;8.774;2022-12-05T17:21:31;7.70;99.90
12971;DHT22;6550;48.650;8.774;2022-12-05T17:23:59;7.40;99.90
12971;DHT22;6550;48.650;8.774;2022-12-05T17:26:26;7.30;99.90
12971;DHT22;6550;48.650;8.774;2022-12-05T17:28:55;7.20;99.90
12971;DHT22;6550;48.650;8.774;2022-12-05T17:31:23;7.20;99.90
12971;DHT22;6550;48.650;8.774;2022-12-05T17:33:52;7.20;99.90
12971;DHT22;6550;48.650;8.774;2022-12-05T17:36:21;7.20;99.90
12971;DHT22;6550;48.650;8.774;2022-12-05T17:38:48;7.10;99.90
12971;DHT22;6550;48.650;8.774;2022-12-05T17:41:20;7.10;99.90
12971;DHT22;6550;48.650;8.774;2022-12-05T17:43:49;7.10;99.90
12971;DHT22;6550;48.650;8.774;2022-12-05T17:46:21;7.10;99.90
12971;DHT22;6550;48.650;8.774;2022-12-05T17:48:49;7.10;99.90
12971;DHT22;6550;48.650;8.774;2022-12-05T17:51:22;7.10;99.90
12971;DHT22;6550;48.650;8.774;2022-12-05T17:53:49;7.10;99.90
12971;DHT22;6550;48.650;8.774;2022-12-05T17:56:18;7.10;99.90
12971;DHT22;6550;48.650;8.774;2022-12-05T17:58:45;7.00;99.90
12971;DHT22;6550;48.650;8.774;2022-12-05T18:01:16;7.10;99.90
12971;DHT22;6550;48.650;8.774;2022-12-05T18:03:46;7.10;99.90
12971;DHT22;6550;48.650;8.774;2022-12-05T18:06:16;7.20;99.90
12971;DHT22;6550;48.650;8.774;2022-12-05T18:08:43;7.10;99.90
12971;DHT22;6550;48.650;8.774;2022-12-05T18:11:12;7.10;99.90
12971;DHT22;6550;48.650;8.774;2022-12-05T18:13:41;7.10;99.90
12971;DHT22;6550;48.650;8.774;2022-12-05T18:16:08;7.10;99.90
12971;DHT22;6550;48.650;8.774;2022-12-05T18:18:35;7.00;99.90
12971;DHT22;6550;48.650;8.774;2022-12-05T18:21:06;7.00;99.90
12971;DHT22;6550;48.650;8.774;2022-12-05T18:23:36;7.00;99.90
12971;DHT22;6550;48.650;8.774;2022-12-05T18:26:06;7.00;99.90
12971;DHT22;6550;48.650;8.774;2022-12-05T18:28:35;7.10;99.90
12971;DHT22;6550;48.650;8.774;2022-12-05T18:31:07;7.10;99.90
12971;DHT22;6550;48.650;8.774;2022-12-05T18:33:39;7.00;99.90
12971;DHT22;6550;48.650;8.774;2022-12-05T18:36:12;7.00;99.90
12971;DHT22;6550;48.650;8.774;2022-12-05T18:38:48;7.00;99.90
12971;DHT22;6550;48.650;8.774;2022-12-05T18:41:15;7.00;99.90
12971;DHT22;6550;48.650;8.774;2022-12-05T18:43:42;7.00;99.90
12971;DHT22;6550;48.650;8.774;2022-12-05T18:46:09;6.90;99.90
12971;DHT22;6550;48.650;8.774;2022-12-05T18:48:38;7.00;99.90
12971;DHT22;6550;48.650;8.774;2022-12-05T18:51:19;6.90;99.90
12971;DHT22;6550;48.650;8.774;2022-12-05T18:53:50;6.90;99.90
12971;DHT22;6550;48.650;8.774;2022-12-05T18:56:24;6.90;99.90
12971;DHT22;6550;48.650;8.774;2022-12-05T18:58:54;7.00;99.90
12971;DHT22;6550;48.650;8.774;2022-12-05T19:01:21;7.00;99.90
12971;DHT22;6550;48.650;8.774;2022-12-05T19:03:51;7.00;99.90
12971;DHT22;6550;48.650;8.774;2022-12-05T19:06:20;7.00;99.90
12971;DHT22;6550;48.650;8.774;2022-12-05T19:08:53;7.00;99.90
12971;DHT22;6550;48.650;8.774;2022-12-05T19:11:21;7.00;99.90
12971;DHT22;6550;48.650;8.774;2022-12-05T19:13:48;6.90;99.90
12971;DHT22;6550;48.650;8.774;2022-12-05T19:16:15;6.90;99.90
12971;DHT22;6550;48.650;8.774;2022-12-05T19:18:52;6.90;99.90
12971;DHT22;6550;48.650;8.774;2022-12-05T19:21:22;6.90;99.90
12971;DHT22;6550;48.650;8.774;2022-12-05T19:23:50;6.90;99.90
12971;DHT22;6550;48.650;8.774;2022-12-05T19:26:17;6.90;99.90
12971;DHT22;6550;48.650;8.774;2022-12-05T19:28:43;6.80;99.90
12971;DHT22;6550;48.650;8.774;2022-12-05T19:31:15;6.80;99.90
12971;DHT22;6550;48.650;8.774;2022-12-05T19:33:46;6.80;99.90
12971;DHT22;6550;48.650;8.774;2022-12-05T19:36:18;6.90;99.90
12971;DHT22;6550;48.650;8.774;2022-12-05T19:38:49;6.80;99.90
12971;DHT22;6550;48.650;8.774;2022-12-05T19:41:18;6.90;99.90
12971;DHT22;6550;48.650;8.774;2022-12-05T19:43:49;6.90;99.90
12971;DHT22;6550;48.650;8.774;2022-12-05T19:46:19;6.90;99.90
12971;DHT22;6550;48.650;8.774;2022-12-05T19:48:47;6.80;99.90
12971;DHT22;6550;48.650;8.774;2022-12-05T19:51:13;6.80;99.90
12971;DHT22;6550;48.650;8.774;2022-12-05T19:53:43;6.80;99.90
12971;DHT22;6550;48.650;8.774;2022-12-05T19:58:40;6.80;99.90